Pasadena 2N

39° 08' 31"N, 76° 30' 27"W, Elevation 43 ft.
Eastern Time

Hourly observations for the last 72 hours

Date Time Temperature (°F) Humi-
dity

(%)
Wind
(mph)
Pressure Rain (in) Sun
(W/m2)
ET
(in)
Air Dew 6 Hour 1 Hr 3 Hr 6 Hr Day
Alt
(in)
Sea
Level

(mb)
Max Min
13 07:00 66.6 54.5 65 W 0 G 5 30.11 1019.5 0.00 16 0.010
13 06:00 66.0 54.3 66 N 0 G 4 30.10 1019.4 0.00 0 0.009
13 05:00 64.9 54.1 68 N 0 G 1 30.09 1019.1 0.00 0 0.008
13 04:00 66.8 54.7 65 ENE 0 G 2 30.08 1018.6 0.00 0 0.006
13 03:00 69.1 55.1 61 E 0 G 7 30.06 1017.8 0.00 0 0.004
13 02:00 69.6 56.0 75.7 63.2 62 NNE 0 G 6 30.05 1017.5 0.00 0 0.002
13 01:00 71.8 56.2 58 N 1 G 6 30.04 1017.4 0.00 0 0.000
13 00:00 70.8 58.5 65 NW 0 G 9 30.03 1017.0 0.00 0 0.161
12 23:00 63.4 56.8 79 S 0 G 2 30.02 1016.7 0.00 0 0.160
12 22:00 65.1 56.6 74 Calm 30.02 1016.6 0.00 0 0.159
12 21:00 69.1 57.7 67 Calm 30.01 1016.3 0.00 0 0.159
12 20:00 75.7 57.4 84.9 75.7 53 NE 0 G 2 30.00 1016.0 0.00 5 0.157
12 19:00 80.0 57.4 46 NNW 2 G 6 29.99 1015.4 0.00 47 0.154
12 18:00 82.1 57.4 43 NNW 1 G 8 29.99 1015.5 0.00 353 0.142
12 17:00 83.6 61.9 48 NE 4 G 8 29.98 1015.2 0.00 536 0.129
12 16:00 82.5 63.7 53 NNE 2 G 9 29.98 1015.2 0.00 809 0.111
12 15:00 84.0 61.6 47 NW 2 G 8 29.98 1015.3 0.00 817 0.088
12 14:00 82.7 61.6 84.1 72.6 49 NE 5 G 9 30.00 1015.8 0.00 902 0.064
12 13:00 83.1 63.1 51 NE 1 G 7 30.01 1016.2 0.00 893 0.041
12 12:00 81.0 63.8 56 NNW 2 G 5 30.01 1016.3 0.00 828 0.022
12 11:00 77.7 64.1 63 NE 2 G 7 30.01 1016.4 0.00 575 0.018
12 10:00 75.7 63.1 65 N 1 G 6 30.00 1015.9 0.00 165 0.014
12 09:00 74.1 62.5 67 S 1 G 7 30.00 1015.8 0.00 54 0.012
12 08:00 72.6 61.0 76.0 72.6 67 N 3 G 8 29.99 1015.6 0.00 25 0.010
12 07:00 73.2 61.2 66 WNW 2 G 10 29.98 1015.3 0.00 12 0.009
12 06:00 73.9 62.3 67 NW 2 G 7 29.96 1014.7 0.00 0 0.007
12 05:00 74.5 63.3 68 NNW 2 G 9 29.93 1013.7 0.00 0 0.005
12 04:00 75.8 64.9 69 NW 1 G 9 29.94 1014.0 0.00 0 0.003
12 03:00 75.0 65.4 72 NW 1 G 6 29.92 1013.3 0.00 0 0.002
12 02:00 75.3 66.4 77.6 72.1 74 W 0 G 3 29.91 1013.0 0.00 0 0.001
12 01:00 75.1 67.4 77 W 2 G 7 29.91 1012.9 0.00 0 0.000
12 00:00 74.2 68.4 82 SW 1 G 3 29.91 1013.0 0.04 0 0.145
11 23:00 72.4 68.3 87 Calm 29.91 1012.9 0.04 0 0.144
11 22:00 72.2 67.4 85 Calm 29.91 1012.8 0.04 0 0.143
11 21:00 73.9 68.1 82 Calm 29.90 1012.4 0.04 0 0.143
11 20:00 77.6 68.7 88.8 77.6 74 Calm 29.88 1011.8 0.04 0 0.142
11 19:00 81.1 68.2 65 NNE 1 G 3 29.86 1011.3 0.04 47 0.139
11 18:00 87.8 67.4 51 W 1 G 5 29.88 1011.8 0.04 330 0.126
11 17:00 88.0 65.3 47 WNW 3 G 11 29.88 1011.7 0.04 526 0.108
11 16:00 88.1 67.2 50 W 3 G 9 29.88 1011.9 0.04 684 0.087
11 15:00 86.2 69.7 58 W 3 G 11 29.89 1012.2 0.04 816 0.066
11 14:00 83.4 68.6 84.6 72.1 61 WNW 1 G 9 29.91 1012.9 0.01 0.04 512 0.045
11 13:00 83.2 70.7 66 SW 1 G 6 29.92 1013.2 0.04 740 0.027
11 12:00 81.1 72.4 75 N 2 G 11 29.93 1013.5 0.04 851 0.012
11 11:00 76.3 72.5 88 W 2 G 9 29.93 1013.5 0.01 0.04 292 0.007
11 10:00 73.2 72.3 97 W 1 G 6 29.93 1013.5 0.01 0.04 202 0.004
11 09:00 72.2 71.0 96 W 1 G 7 29.94 1014.0 0.03 81 0.001
11 08:00 73.0 72.4 73.0 72.0 98 W 1 G 4 29.93 1013.6 0.02 0.03 0.03 79 0.000
11 07:00 72.3 71.4 97 W 0 G 4 29.93 1013.7 0.03 16 0.000
11 06:00 72.2 71.3 97 W 0 G 4 29.92 1013.4 0.02 0.03 0 0.000
11 05:00 72.3 71.4 97 WNW 0 G 2 29.92 1013.3 0.01 0.01 0 0.000
11 04:00 72.2 71.3 97 Calm 29.92 1013.3 0.01 0.01 0 0.000
11 03:00 72.2 71.3 97 WNW 0 G 3 29.93 1013.7 0.00 0 0.000
11 02:00 72.3 71.4 72.7 71.8 97 W 1 G 4 29.95 1014.3 0.10 0.00 0 0.000
11 01:00 72.5 71.6 97 SSW 2 G 7 29.95 1014.4 0.00 0 0.000
11 00:00 72.6 71.7 97 S 1 G 4 29.97 1014.8 0.58 0 0.100
10 23:00 72.5 71.3 96 Calm 29.98 1015.4 0.10 0.58 0 0.100
10 22:00 72.3 71.1 96 W 0 G 1 29.98 1015.3 0.01 0.58 0 0.100
10 21:00 71.9 70.4 95 SW 0 G 4 29.96 1014.7 0.09 0.57 0 0.100
10 20:00 72.2 70.4 90.7 72.2 94 W 0 G 3 30.00 1015.8 0.14 0.47 0.47 0.48 0 0.100
10 19:00 72.9 70.8 93 WSW 2 G 4 29.98 1015.3 0.33 0.34 0 0.100
10 18:00 79.2 71.8 78 WSW 6 G 18 29.98 1015.4 0.01 0 0.099
10 17:00 88.5 78.3 72 NE 0 G 7 29.94 1014.0 0.01 69 0.087
10 16:00 89.6 79.0 71 SE 4 G 8 29.95 1014.3 0.01 490 0.071
10 15:00 87.6 78.7 75 E 1 G 6 29.97 1014.9 0.01 153 0.057
10 14:00 89.2 79.4 90.0 76.4 73 NE 3 G 6 30.00 1015.9 0.01 258 0.043
10 13:00 89.8 79.1 71 N 1 G 4 30.02 1016.7 0.01 944 0.026
10 12:00 87.4 78.1 74 ENE 0 G 4 30.03 1017.1 0.01 708 0.009
10 11:00 83.8 77.7 82 NE 0 G 4 30.05 1017.5 0.01 650 0.004
10 10:00 80.5 76.6 88 NE 0 G 2 30.04 1017.2 0.01 69 0.002
10 09:00 77.3 75.8 95 NNW 0 G 3 30.04 1017.2 0.01 49 0.001
10 08:00 76.4 75.8 76.4 74.0 98 Calm 30.04 1017.2 0.01 0.01 0.01 39 0.000

Data generated by WxSolution Version 1.9.1.8, Build 2020.02.16.